Thursday, January 17, 2019, 6:29 AM EST
Back to Local

KFMH, Otis Air National Guard Base

Location: Mashpee, MA, United States Lat: 41.65
Local Time: 6:29 AM EST (11:29 GMT) Lon: -70.517
Time Zone: US/Eastern Elev: 131 ft

Show me the last for .
Show Decoded

2019-01-17 06:15 METAR KFMH 171115Z AUTO 35006KT 10SM CLR M06/M15 A3029 RMK AO2 =
2019-01-17 05:55 METAR KFMH 171055Z AUTO 35005KT 10SM CLR M06/M15 A3029 RMK AO2 =
2019-01-17 05:35 METAR KFMH 171035Z AUTO 33006G12KT 10SM CLR M05/M14 A3028 RMK AO2 =
2019-01-17 05:15 METAR KFMH 171015Z AUTO 35005KT 10SM CLR M05/M13 A3027 RMK AO2 =
2019-01-17 04:55 METAR KFMH 170955Z AUTO 34005KT 10SM CLR M04/M13 A3026 RMK AO2 =
2019-01-17 04:35 METAR KFMH 170935Z AUTO 33007G12KT 10SM CLR M04/M13 A3025 RMK AO2 =
2019-01-17 04:15 METAR KFMH 170915Z AUTO 33008G15KT 10SM CLR M04/M13 A3024 RMK AO2 =
2019-01-17 03:55 METAR KFMH 170855Z AUTO 33007G18KT 10SM CLR M03/M12 A3023 RMK AO2 =
2019-01-17 03:35 METAR KFMH 170835Z AUTO 32009KT 10SM CLR M03/M11 A3023 RMK AO2 =
2019-01-17 03:15 METAR KFMH 170815Z AUTO 32008KT 10SM CLR M03/M11 A3022 RMK AO2 =
2019-01-17 02:55 METAR KFMH 170755Z AUTO 32008KT 10SM CLR M03/M11 A3021 RMK AO2 =
2019-01-17 02:35 METAR KFMH 170735Z AUTO 31006KT 10SM CLR M03/M11 A3020 RMK AO2 =
2019-01-17 01:55 METAR KFMH 170655Z AUTO 31007KT 10SM CLR M02/M11 A3019 RMK AO2 =
2019-01-17 01:35 METAR KFMH 170635Z AUTO 30007KT 10SM CLR M02/M11 A3017 RMK AO2 =
2019-01-17 01:15 METAR KFMH 170615Z AUTO 30007KT 10SM CLR M02/M10 A3016 RMK AO2 =
2019-01-17 00:55 METAR KFMH 170555Z AUTO 30009G15KT 10SM CLR M02/M10 A3015 RMK AO2 =
2019-01-17 00:35 METAR KFMH 170535Z AUTO 29011KT 10SM CLR M02/M09 A3014 RMK AO2 =
2019-01-17 00:15 METAR KFMH 170515Z AUTO 29009KT 10SM CLR M02/M09 A3013 RMK AO2 =
2019-01-16 23:55 METAR KFMH 170455Z AUTO 29008KT 10SM CLR M02/M08 A3012 RMK AO2 =
2019-01-16 23:35 METAR KFMH 170435Z AUTO 29009KT 10SM CLR M01/M08 A3012 RMK AO2 =
2019-01-16 23:15 METAR KFMH 170415Z AUTO 28010KT 10SM CLR M01/M07 A3011 RMK AO2 =
2019-01-16 22:55 METAR KFMH 170355Z AUTO 28009KT 10SM CLR M00/M07 A3010 RMK AO2 =
2019-01-16 22:35 METAR KFMH 170335Z AUTO 29011G16KT 10SM CLR 00/M07 A3009 RMK AO2 =
2019-01-16 22:15 METAR KFMH 170315Z AUTO 27011KT 10SM CLR 00/M06 A3008 RMK AO2 =
2019-01-16 21:55 METAR KFMH 170255Z AUTO 26012KT 10SM CLR 00/M05 A3007 RMK AO2 =
2019-01-16 21:35 METAR KFMH 170235Z AUTO 24011KT 10SM SCT055 01/M05 A3006 RMK AO2 =
2019-01-16 21:15 METAR KFMH 170215Z AUTO 25011KT 10SM FEW055 01/M05 A3006 RMK AO2 =
2019-01-16 20:55 METAR KFMH 170155Z 24013KT 10SM FEW060 01/M05 A3005 RMK AO2 =
2019-01-16 20:35 METAR KFMH 170135Z 25009KT 10SM CLR 01/M05 A3004 RMK AO2 =
2019-01-16 20:15 METAR KFMH 170115Z 24010G15KT 10SM CLR 00/M05 A3003 RMK AO2 =
2019-01-16 19:55 METAR KFMH 170055Z AUTO 24008KT 10SM CLR 00/M05 A3003 RMK AO2 =
2019-01-16 19:35 METAR KFMH 170035Z AUTO 24009KT 10SM CLR 00/M05 A3003 RMK AO2 =
2019-01-16 19:15 METAR KFMH 170015Z AUTO 24009KT 10SM CLR M00/M05 A3003 RMK AO2 =
2019-01-16 18:55 METAR KFMH 162355Z AUTO 23008KT 10SM CLR M01/M05 A3003 RMK AO2 =
2019-01-16 18:35 METAR KFMH 162335Z AUTO 23005KT 10SM CLR M02/M06 A3002 RMK AO2 =
2019-01-16 18:15 METAR KFMH 162315Z AUTO 23006KT 10SM CLR M01/M06 A3002 RMK AO2 =
2019-01-16 17:55 METAR KFMH 162255Z AUTO 23006KT 10SM CLR M01/M06 A3000 RMK AO2 =
2019-01-16 17:35 METAR KFMH 162235Z AUTO 24006KT 10SM CLR M00/M07 A3000 RMK AO2 =
2019-01-16 17:15 METAR KFMH 162215Z AUTO 24007KT 10SM CLR M01/M07 A2999 RMK AO2 =
2019-01-16 16:55 METAR KFMH 162155Z AUTO 26007KT 10SM FEW040 M00/M07 A2998 RMK AO2 =
2019-01-16 16:35 METAR KFMH 162135Z AUTO 28009G16KT 10SM BKN040 01/M07 A2998 RMK AO2 =
2019-01-16 16:15 METAR KFMH 162115Z AUTO 29009KT 10SM OVC039 02/M06 A2998 RMK AO2 =
2019-01-16 15:55 METAR KFMH 162055Z AUTO 28010KT 10SM OVC036 02/M06 A2997 RMK AO2 =
2019-01-16 15:35 METAR KFMH 162035Z AUTO 27012G18KT 10SM OVC036 02/M06 A2997 RMK AO2 =
2019-01-16 15:15 METAR KFMH 162015Z AUTO 27008G15KT 10SM OVC035 02/M06 A2996 RMK AO2 =
2019-01-16 14:55 METAR KFMH 161955Z AUTO 28012KT 10SM OVC034 02/M06 A2996 RMK AO2 =
2019-01-16 14:35 METAR KFMH 161935Z AUTO 25013KT 10SM OVC034 02/M05 A2995 RMK AO2 =
2019-01-16 14:15 METAR KFMH 161915Z AUTO 26012KT 10SM OVC032 02/M05 A2994 RMK AO2 =
2019-01-16 13:55 METAR KFMH 161855Z 25014KT 10SM BKN034 03/M05 A2994 RMK AO2 =
2019-01-16 13:35 METAR KFMH 161835Z 24014KT 10SM BKN031 02/M05 A2994 RMK AO2 =
2019-01-16 13:15 METAR KFMH 161815Z AUTO 25015KT 10SM OVC030 02/M05 A2994 RMK AO2 =
2019-01-16 12:55 METAR KFMH 161755Z 25013KT 10SM OVC025 02/M04 A2995 RMK AO2 =
2019-01-16 12:35 METAR KFMH 161735Z 25014G22KT 10SM OVC025 02/M04 A2995 RMK AO2 =
2019-01-16 12:15 METAR KFMH 161715Z 25013G22KT 10SM OVC026 02/M04 A2996 RMK AO2 =
2019-01-16 11:55 METAR KFMH 161655Z AUTO 24017G28KT 10SM BKN029 BKN034 02/M04 A2996 RMK AO2 =
2019-01-16 11:35 METAR KFMH 161635Z AUTO 24019G28KT 10SM CLR 03/M04 A2997 RMK AO2 =
2019-01-16 11:15 METAR KFMH 161615Z AUTO 24022G30KT 10SM CLR 03/M04 A2998 RMK AO2 =
2019-01-16 10:55 METAR KFMH 161555Z AUTO 24020G28KT 10SM CLR 03/M04 A2999 RMK AO2 =
2019-01-16 10:35 METAR KFMH 161535Z AUTO 23020KT 10SM FEW029 04/M02 A2999 RMK AO2 =
2019-01-16 10:15 METAR KFMH 161515Z AUTO 24013G21KT 10SM SCT024 BKN030 03/M02 A3001 RMK AO2 =
2019-01-16 09:55 METAR KFMH 161455Z AUTO 23011KT 10SM SCT024 OVC030 02/M02 A3001 RMK AO2 =
2019-01-16 09:35 METAR KFMH 161435Z AUTO 21008KT 10SM BKN029 02/M02 A3001 RMK AO2 =
2019-01-16 09:15 METAR KFMH 161415Z AUTO 20006KT 10SM FEW027 SCT070 M00/M03 A3001 RMK AO2 =
2019-01-16 08:55 METAR KFMH 161355Z AUTO 00000KT 10SM FEW027 M02/M04 A3002 RMK AO2 =
2019-01-16 08:35 METAR KFMH 161335Z AUTO 00000KT 10SM CLR M04/M05 A3002 RMK AO2 =
2019-01-16 08:15 METAR KFMH 161315Z AUTO 00000KT 10SM CLR M06/M07 A3002 RMK AO2 =
2019-01-16 07:55 METAR KFMH 161255Z AUTO 00000KT 10SM CLR M08/M10 A3002 RMK AO2 =
2019-01-16 07:35 METAR KFMH 161235Z AUTO 00000KT 10SM CLR M09/M10 A3003 RMK AO2 =
2019-01-16 07:15 METAR KFMH 161215Z AUTO 00000KT 10SM CLR M10/M12 A3003 RMK AO2 =
2019-01-16 06:55 METAR KFMH 161155Z AUTO 00000KT 10SM FEW024 SCT029 M10/M12 A3002 RMK AO2 =
2019-01-16 06:35 METAR KFMH 161135Z AUTO 00000KT 10SM BKN024 BKN030 M10/M12 A3002 RMK AO2 =

Support USWX by starting your Amazon purchase here.